sensor_id;sensor_type;location;lat;lon;timestamp;temperature;humidity
29917;DHT22;16786;49.466;11.068;2022-12-18T00:01:29;-8.60;99.90
29917;DHT22;16786;49.466;11.068;2022-12-18T00:03:57;-8.60;99.90
29917;DHT22;16786;49.466;11.068;2022-12-18T00:06:27;-8.70;99.90
29917;DHT22;16786;49.466;11.068;2022-12-18T00:08:56;-8.70;99.90
29917;DHT22;16786;49.466;11.068;2022-12-18T00:11:26;-8.70;99.90
29917;DHT22;16786;49.466;11.068;2022-12-18T00:13:56;-8.70;99.90
29917;DHT22;16786;49.466;11.068;2022-12-18T00:16:25;-8.80;99.90
29917;DHT22;16786;49.466;11.068;2022-12-18T00:18:55;-8.80;99.90
29917;DHT22;16786;49.466;11.068;2022-12-18T00:21:23;-8.80;99.90
29917;DHT22;16786;49.466;11.068;2022-12-18T00:23:51;-8.80;99.90
29917;DHT22;16786;49.466;11.068;2022-12-18T00:26:23;-8.90;99.90
29917;DHT22;16786;49.466;11.068;2022-12-18T00:28:59;-8.90;99.90
29917;DHT22;16786;49.466;11.068;2022-12-18T00:31:29;-9.00;99.90
29917;DHT22;16786;49.466;11.068;2022-12-18T00:33:57;-9.00;99.90
29917;DHT22;16786;49.466;11.068;2022-12-18T00:36:27;-9.10;99.90
29917;DHT22;16786;49.466;11.068;2022-12-18T00:38:56;-9.10;99.90
29917;DHT22;16786;49.466;11.068;2022-12-18T00:41:24;-9.20;99.90
29917;DHT22;16786;49.466;11.068;2022-12-18T00:44:12;-9.20;99.90
29917;DHT22;16786;49.466;11.068;2022-12-18T00:46:40;-9.20;99.90
29917;DHT22;16786;49.466;11.068;2022-12-18T00:49:08;-9.10;99.90
29917;DHT22;16786;49.466;11.068;2022-12-18T00:51:38;-9.10;99.90
29917;DHT22;16786;49.466;11.068;2022-12-18T00:54:06;-9.20;99.90
29917;DHT22;16786;49.466;11.068;2022-12-18T00:56:36;-9.20;99.90
29917;DHT22;16786;49.466;11.068;2022-12-18T00:59:15;-9.20;99.90
29917;DHT22;16786;49.466;11.068;2022-12-18T01:01:43;-9.20;99.90
29917;DHT22;16786;49.466;11.068;2022-12-18T01:04:12;-9.20;99.90
29917;DHT22;16786;49.466;11.068;2022-12-18T01:06:39;-9.20;99.90
29917;DHT22;16786;49.466;11.068;2022-12-18T01:09:07;-9.20;99.90
29917;DHT22;16786;49.466;11.068;2022-12-18T01:11:36;-9.20;99.90
29917;DHT22;16786;49.466;11.068;2022-12-18T01:14:04;-9.20;99.90
29917;DHT22;16786;49.466;11.068;2022-12-18T01:16:31;-9.00;99.90
29917;DHT22;16786;49.466;11.068;2022-12-18T01:18:59;-9.00;99.90
29917;DHT22;16786;49.466;11.068;2022-12-18T01:21:27;-9.00;99.90
29917;DHT22;16786;49.466;11.068;2022-12-18T01:23:55;-9.00;99.90
29917;DHT22;16786;49.466;11.068;2022-12-18T01:26:24;-9.10;99.90
29917;DHT22;16786;49.466;11.068;2022-12-18T01:28:54;-9.10;99.90
29917;DHT22;16786;49.466;11.068;2022-12-18T01:31:28;-9.10;99.90
29917;DHT22;16786;49.466;11.068;2022-12-18T01:33:57;-9.10;99.90
29917;DHT22;16786;49.466;11.068;2022-12-18T01:36:26;-9.20;99.90
29917;DHT22;16786;49.466;11.068;2022-12-18T01:38:55;-9.20;99.90
29917;DHT22;16786;49.466;11.068;2022-12-18T01:41:25;-9.30;99.90
29917;DHT22;16786;49.466;11.068;2022-12-18T01:43:55;-9.30;99.90
29917;DHT22;16786;49.466;11.068;2022-12-18T01:46:25;-9.40;99.90
29917;DHT22;16786;49.466;11.068;2022-12-18T01:48:59;-9.40;99.90
29917;DHT22;16786;49.466;11.068;2022-12-18T01:51:29;-9.40;99.90
29917;DHT22;16786;49.466;11.068;2022-12-18T01:53:57;-9.40;99.90
29917;DHT22;16786;49.466;11.068;2022-12-18T01:56:26;-9.50;99.90
29917;DHT22;16786;49.466;11.068;2022-12-18T01:59:05;-9.50;99.90
29917;DHT22;16786;49.466;11.068;2022-12-18T02:01:34;-9.50;99.90
29917;DHT22;16786;49.466;11.068;2022-12-18T02:04:22;-9.60;99.90
29917;DHT22;16786;49.466;11.068;2022-12-18T02:07:04;-9.60;99.90
29917;DHT22;16786;49.466;11.068;2022-12-18T02:09:48;-9.60;99.90
29917;DHT22;16786;49.466;11.068;2022-12-18T02:12:23;-9.50;99.90
29917;DHT22;16786;49.466;11.068;2022-12-18T02:17:56;-9.50;99.90
29917;DHT22;16786;49.466;11.068;2022-12-18T02:20:34;-9.50;99.90
29917;DHT22;16786;49.466;11.068;2022-12-18T02:28:30;-9.50;99.90
29917;DHT22;16786;49.466;11.068;2022-12-18T02:31:04;-9.50;99.90
29917;DHT22;16786;49.466;11.068;2022-12-18T02:33:34;-9.40;99.90
29917;DHT22;16786;49.466;11.068;2022-12-18T02:36:04;-9.30;99.90
29917;DHT22;16786;49.466;11.068;2022-12-18T02:38:33;-9.30;99.90
29917;DHT22;16786;49.466;11.068;2022-12-18T02:41:08;-9.20;99.90
29917;DHT22;16786;49.466;11.068;2022-12-18T02:43:36;-9.10;99.90
29917;DHT22;16786;49.466;11.068;2022-12-18T02:46:42;-8.90;99.90
29917;DHT22;16786;49.466;11.068;2022-12-18T02:55:23;-8.30;99.90
29917;DHT22;16786;49.466;11.068;2022-12-18T02:58:00;-8.20;99.90
29917;DHT22;16786;49.466;11.068;2022-12-18T03:03:55;-7.90;99.90
29917;DHT22;16786;49.466;11.068;2022-12-18T03:06:46;-7.70;99.90
29917;DHT22;16786;49.466;11.068;2022-12-18T03:09:21;-7.50;99.90
29917;DHT22;16786;49.466;11.068;2022-12-18T03:11:55;-7.40;99.90
29917;DHT22;16786;49.466;11.068;2022-12-18T03:14:43;-7.30;99.90
29917;DHT22;16786;49.466;11.068;2022-12-18T03:17:14;-7.20;99.90
29917;DHT22;16786;49.466;11.068;2022-12-18T03:19:44;-7.10;99.90
29917;DHT22;16786;49.466;11.068;2022-12-18T03:22:15;-7.00;99.90
29917;DHT22;16786;49.466;11.068;2022-12-18T03:24:48;-6.90;99.90
29917;DHT22;16786;49.466;11.068;2022-12-18T03:27:18;-6.90;99.90
29917;DHT22;16786;49.466;11.068;2022-12-18T03:30:09;-6.80;99.90
29917;DHT22;16786;49.466;11.068;2022-12-18T03:35:33;-6.70;99.90
29917;DHT22;16786;49.466;11.068;2022-12-18T03:38:04;-6.60;99.90
29917;DHT22;16786;49.466;11.068;2022-12-18T03:40:59;-6.50;99.90
29917;DHT22;16786;49.466;11.068;2022-12-18T03:43:47;-6.50;99.90
29917;DHT22;16786;49.466;11.068;2022-12-18T03:46:26;-6.40;99.90
29917;DHT22;16786;49.466;11.068;2022-12-18T03:49:10;-6.30;99.90
29917;DHT22;16786;49.466;11.068;2022-12-18T03:51:43;-6.20;99.90
29917;DHT22;16786;49.466;11.068;2022-12-18T03:54:15;-6.20;99.90
29917;DHT22;16786;49.466;11.068;2022-12-18T03:57:00;-6.10;99.90
29917;DHT22;16786;49.466;11.068;2022-12-18T03:59:30;-6.10;99.90
29917;DHT22;16786;49.466;11.068;2022-12-18T04:01:59;-6.00;99.90
29917;DHT22;16786;49.466;11.068;2022-12-18T04:04:29;-5.90;99.90
29917;DHT22;16786;49.466;11.068;2022-12-18T04:07:01;-5.90;99.90
29917;DHT22;16786;49.466;11.068;2022-12-18T04:09:33;-5.80;99.90
29917;DHT22;16786;49.466;11.068;2022-12-18T04:12:01;-5.80;99.90
29917;DHT22;16786;49.466;11.068;2022-12-18T04:14:29;-5.70;99.90
29917;DHT22;16786;49.466;11.068;2022-12-18T04:16:56;-5.80;99.90
29917;DHT22;16786;49.466;11.068;2022-12-18T04:19:29;-5.80;99.90
29917;DHT22;16786;49.466;11.068;2022-12-18T04:21:58;-5.80;99.90
29917;DHT22;16786;49.466;11.068;2022-12-18T04:24:26;-5.80;99.90
29917;DHT22;16786;49.466;11.068;2022-12-18T04:27:04;-5.80;99.90
29917;DHT22;16786;49.466;11.068;2022-12-18T04:29:38;-5.80;99.90
29917;DHT22;16786;49.466;11.068;2022-12-18T04:32:06;-5.80;99.90
29917;DHT22;16786;49.466;11.068;2022-12-18T04:34:34;-5.80;99.90
29917;DHT22;16786;49.466;11.068;2022-12-18T04:37:01;-5.80;99.90
29917;DHT22;16786;49.466;11.068;2022-12-18T04:39:29;-5.80;99.90
29917;DHT22;16786;49.466;11.068;2022-12-18T04:42:02;-5.80;99.90
29917;DHT22;16786;49.466;11.068;2022-12-18T04:44:30;-5.80;99.90
29917;DHT22;16786;49.466;11.068;2022-12-18T04:46:57;-5.70;99.90
29917;DHT22;16786;49.466;11.068;2022-12-18T04:49:24;-5.70;99.90
29917;DHT22;16786;49.466;11.068;2022-12-18T04:51:53;-5.70;99.90
29917;DHT22;16786;49.466;11.068;2022-12-18T04:54:21;-5.70;99.90
29917;DHT22;16786;49.466;11.068;2022-12-18T04:56:48;-5.70;99.90
29917;DHT22;16786;49.466;11.068;2022-12-18T04:59:15;-5.70;99.90
29917;DHT22;16786;49.466;11.068;2022-12-18T05:01:42;-5.60;99.90
29917;DHT22;16786;49.466;11.068;2022-12-18T05:04:10;-5.60;99.90
29917;DHT22;16786;49.466;11.068;2022-12-18T05:06:37;-5.60;99.90
29917;DHT22;16786;49.466;11.068;2022-12-18T05:09:05;-5.70;99.90
29917;DHT22;16786;49.466;11.068;2022-12-18T05:11:32;-5.80;99.90
29917;DHT22;16786;49.466;11.068;2022-12-18T05:13:59;-5.70;99.90
29917;DHT22;16786;49.466;11.068;2022-12-18T05:16:26;-5.70;99.90
29917;DHT22;16786;49.466;11.068;2022-12-18T05:18:54;-5.80;99.90
29917;DHT22;16786;49.466;11.068;2022-12-18T05:21:21;-5.80;99.90
29917;DHT22;16786;49.466;11.068;2022-12-18T05:23:48;-5.80;99.90
29917;DHT22;16786;49.466;11.068;2022-12-18T05:26:17;-5.80;99.90
29917;DHT22;16786;49.466;11.068;2022-12-18T05:28:45;-5.90;99.90
29917;DHT22;16786;49.466;11.068;2022-12-18T05:31:13;-5.80;99.90
29917;DHT22;16786;49.466;11.068;2022-12-18T05:33:40;-5.80;99.90
29917;DHT22;16786;49.466;11.068;2022-12-18T05:36:09;-5.90;99.90
29917;DHT22;16786;49.466;11.068;2022-12-18T05:38:38;-5.90;99.90
29917;DHT22;16786;49.466;11.068;2022-12-18T05:41:07;-5.80;99.90
29917;DHT22;16786;49.466;11.068;2022-12-18T05:43:36;-5.80;99.90
29917;DHT22;16786;49.466;11.068;2022-12-18T05:46:11;-5.80;99.90
29917;DHT22;16786;49.466;11.068;2022-12-18T05:48:39;-5.80;99.90
29917;DHT22;16786;49.466;11.068;2022-12-18T05:51:11;-5.70;99.90
29917;DHT22;16786;49.466;11.068;2022-12-18T05:53:39;-5.70;99.90
29917;DHT22;16786;49.466;11.068;2022-12-18T05:56:12;-5.70;99.90
29917;DHT22;16786;49.466;11.068;2022-12-18T05:58:40;-5.60;99.90
29917;DHT22;16786;49.466;11.068;2022-12-18T06:01:17;-5.60;99.90
29917;DHT22;16786;49.466;11.068;2022-12-18T06:03:45;-5.60;99.90
29917;DHT22;16786;49.466;11.068;2022-12-18T06:06:18;-5.50;99.90
29917;DHT22;16786;49.466;11.068;2022-12-18T06:08:46;-5.50;99.90
29917;DHT22;16786;49.466;11.068;2022-12-18T06:11:18;-5.50;99.90
29917;DHT22;16786;49.466;11.068;2022-12-18T06:13:46;-5.50;99.90
29917;DHT22;16786;49.466;11.068;2022-12-18T06:16:13;-5.50;99.90
29917;DHT22;16786;49.466;11.068;2022-12-18T06:18:41;-5.40;99.90
29917;DHT22;16786;49.466;11.068;2022-12-18T06:21:08;-5.40;99.90
29917;DHT22;16786;49.466;11.068;2022-12-18T06:23:36;-5.40;99.90
29917;DHT22;16786;49.466;11.068;2022-12-18T06:26:08;-5.30;99.90
29917;DHT22;16786;49.466;11.068;2022-12-18T06:28:36;-5.30;99.90
29917;DHT22;16786;49.466;11.068;2022-12-18T06:31:04;-5.30;99.90
29917;DHT22;16786;49.466;11.068;2022-12-18T06:33:32;-5.30;99.90
29917;DHT22;16786;49.466;11.068;2022-12-18T06:36:01;-5.30;99.90
29917;DHT22;16786;49.466;11.068;2022-12-18T06:38:28;-5.20;99.90
29917;DHT22;16786;49.466;11.068;2022-12-18T06:40:56;-5.30;99.90
29917;DHT22;16786;49.466;11.068;2022-12-18T06:43:24;-5.20;99.90
29917;DHT22;16786;49.466;11.068;2022-12-18T06:45:51;-5.20;99.90
29917;DHT22;16786;49.466;11.068;2022-12-18T06:48:20;-5.10;99.90
29917;DHT22;16786;49.466;11.068;2022-12-18T06:50:47;-5.10;99.90
29917;DHT22;16786;49.466;11.068;2022-12-18T06:53:14;-5.10;99.90
29917;DHT22;16786;49.466;11.068;2022-12-18T06:55:42;-5.10;99.90
29917;DHT22;16786;49.466;11.068;2022-12-18T06:58:09;-5.10;99.90
29917;DHT22;16786;49.466;11.068;2022-12-18T07:00:37;-5.00;99.90
29917;DHT22;16786;49.466;11.068;2022-12-18T07:03:05;-5.00;99.90
29917;DHT22;16786;49.466;11.068;2022-12-18T07:05:32;-5.00;99.90
29917;DHT22;16786;49.466;11.068;2022-12-18T07:07:59;-5.00;99.90
29917;DHT22;16786;49.466;11.068;2022-12-18T07:10:27;-5.00;99.90
29917;DHT22;16786;49.466;11.068;2022-12-18T07:12:54;-5.00;99.90
29917;DHT22;16786;49.466;11.068;2022-12-18T07:15:21;-5.00;99.90
29917;DHT22;16786;49.466;11.068;2022-12-18T07:17:49;-4.90;99.90
29917;DHT22;16786;49.466;11.068;2022-12-18T07:20:16;-4.90;99.90
29917;DHT22;16786;49.466;11.068;2022-12-18T07:22:43;-4.90;99.90
29917;DHT22;16786;49.466;11.068;2022-12-18T07:25:10;-4.90;99.90
29917;DHT22;16786;49.466;11.068;2022-12-18T07:27:38;-4.80;99.90
29917;DHT22;16786;49.466;11.068;2022-12-18T07:30:05;-4.70;99.90
29917;DHT22;16786;49.466;11.068;2022-12-18T07:32:33;-4.70;99.90
29917;DHT22;16786;49.466;11.068;2022-12-18T07:35:01;-4.70;99.90
29917;DHT22;16786;49.466;11.068;2022-12-18T07:37:28;-4.60;99.90
29917;DHT22;16786;49.466;11.068;2022-12-18T07:39:55;-4.60;99.90
29917;DHT22;16786;49.466;11.068;2022-12-18T07:42:23;-4.60;99.90
29917;DHT22;16786;49.466;11.068;2022-12-18T07:44:59;-4.50;99.90
29917;DHT22;16786;49.466;11.068;2022-12-18T07:47:28;-4.50;99.90
29917;DHT22;16786;49.466;11.068;2022-12-18T07:49:58;-4.40;99.90
29917;DHT22;16786;49.466;11.068;2022-12-18T07:52:26;-4.30;99.90
29917;DHT22;16786;49.466;11.068;2022-12-18T07:54:53;-4.20;99.90
29917;DHT22;16786;49.466;11.068;2022-12-18T07:57:20;-4.20;99.90
29917;DHT22;16786;49.466;11.068;2022-12-18T08:00:08;-4.10;99.90
29917;DHT22;16786;49.466;11.068;2022-12-18T08:02:39;-4.00;99.90
29917;DHT22;16786;49.466;11.068;2022-12-18T08:05:08;-3.90;99.90
29917;DHT22;16786;49.466;11.068;2022-12-18T08:07:35;-3.90;99.90
29917;DHT22;16786;49.466;11.068;2022-12-18T08:10:03;-3.80;99.90
29917;DHT22;16786;49.466;11.068;2022-12-18T08:12:32;-3.70;99.90
29917;DHT22;16786;49.466;11.068;2022-12-18T08:14:59;-3.70;99.90
29917;DHT22;16786;49.466;11.068;2022-12-18T08:17:26;-3.60;99.90
29917;DHT22;16786;49.466;11.068;2022-12-18T08:19:54;-3.50;99.90
29917;DHT22;16786;49.466;11.068;2022-12-18T08:22:21;-3.40;99.90
29917;DHT22;16786;49.466;11.068;2022-12-18T08:24:49;-3.40;99.90
29917;DHT22;16786;49.466;11.068;2022-12-18T08:27:16;-3.30;99.90
29917;DHT22;16786;49.466;11.068;2022-12-18T08:29:59;-3.20;99.90
29917;DHT22;16786;49.466;11.068;2022-12-18T08:32:27;-3.10;99.90
29917;DHT22;16786;49.466;11.068;2022-12-18T08:34:55;-3.10;99.90
29917;DHT22;16786;49.466;11.068;2022-12-18T08:37:22;-3.00;99.90
29917;DHT22;16786;49.466;11.068;2022-12-18T08:39:49;-2.90;99.90
29917;DHT22;16786;49.466;11.068;2022-12-18T08:42:17;-2.80;99.90
29917;DHT22;16786;49.466;11.068;2022-12-18T08:45:03;-2.80;99.90
29917;DHT22;16786;49.466;11.068;2022-12-18T08:47:31;-2.70;99.90
29917;DHT22;16786;49.466;11.068;2022-12-18T08:49:58;-2.70;99.90
29917;DHT22;16786;49.466;11.068;2022-12-18T08:52:25;-2.60;99.90
29917;DHT22;16786;49.466;11.068;2022-12-18T08:54:53;-2.50;99.90
29917;DHT22;16786;49.466;11.068;2022-12-18T08:57:20;-2.40;99.90
29917;DHT22;16786;49.466;11.068;2022-12-18T08:59:47;-2.30;99.90
29917;DHT22;16786;49.466;11.068;2022-12-18T09:02:15;-2.30;99.90
29917;DHT22;16786;49.466;11.068;2022-12-18T09:04:42;-2.20;99.90
29917;DHT22;16786;49.466;11.068;2022-12-18T09:07:12;-2.10;99.90
29917;DHT22;16786;49.466;11.068;2022-12-18T09:09:40;-2.10;99.90
29917;DHT22;16786;49.466;11.068;2022-12-18T09:12:07;-2.00;99.90
29917;DHT22;16786;49.466;11.068;2022-12-18T09:14:35;-1.90;99.90
29917;DHT22;16786;49.466;11.068;2022-12-18T09:17:02;-1.80;99.90
29917;DHT22;16786;49.466;11.068;2022-12-18T09:19:30;-1.70;99.90
29917;DHT22;16786;49.466;11.068;2022-12-18T09:21:57;-1.70;99.90
29917;DHT22;16786;49.466;11.068;2022-12-18T09:24:24;-1.60;99.90
29917;DHT22;16786;49.466;11.068;2022-12-18T09:26:55;-1.50;99.90
29917;DHT22;16786;49.466;11.068;2022-12-18T09:29:24;-1.60;99.90
29917;DHT22;16786;49.466;11.068;2022-12-18T09:31:51;-1.60;99.90
29917;DHT22;16786;49.466;11.068;2022-12-18T09:34:18;-1.50;99.90
29917;DHT22;16786;49.466;11.068;2022-12-18T09:36:48;-1.50;99.90
29917;DHT22;16786;49.466;11.068;2022-12-18T09:39:16;-1.50;99.90
29917;DHT22;16786;49.466;11.068;2022-12-18T09:41:57;-1.60;99.90
29917;DHT22;16786;49.466;11.068;2022-12-18T09:44:40;-1.60;99.90
29917;DHT22;16786;49.466;11.068;2022-12-18T09:47:18;-1.60;99.90
29917;DHT22;16786;49.466;11.068;2022-12-18T09:49:57;-1.40;99.90
29917;DHT22;16786;49.466;11.068;2022-12-18T09:55:08;-1.10;99.90
29917;DHT22;16786;49.466;11.068;2022-12-18T09:57:45;-1.00;99.90
29917;DHT22;16786;49.466;11.068;2022-12-18T10:00:25;-1.10;99.90
29917;DHT22;16786;49.466;11.068;2022-12-18T10:02:58;-1.20;99.90
29917;DHT22;16786;49.466;11.068;2022-12-18T10:14:36;-0.60;99.90
29917;DHT22;16786;49.466;11.068;2022-12-18T10:17:28;-0.70;99.90
29917;DHT22;16786;49.466;11.068;2022-12-18T10:26:03;-0.50;99.90
29917;DHT22;16786;49.466;11.068;2022-12-18T10:28:32;-0.70;99.90
29917;DHT22;16786;49.466;11.068;2022-12-18T10:31:00;-0.90;99.90
29917;DHT22;16786;49.466;11.068;2022-12-18T10:33:29;-0.80;99.90
29917;DHT22;16786;49.466;11.068;2022-12-18T10:35:57;-1.00;99.90
29917;DHT22;16786;49.466;11.068;2022-12-18T10:38:30;-0.90;99.90
29917;DHT22;16786;49.466;11.068;2022-12-18T10:40:58;-0.80;99.90
29917;DHT22;16786;49.466;11.068;2022-12-18T10:48:40;-0.60;99.90
29917;DHT22;16786;49.466;11.068;2022-12-18T10:51:30;-0.60;99.90
29917;DHT22;16786;49.466;11.068;2022-12-18T10:54:01;-0.60;99.90
29917;DHT22;16786;49.466;11.068;2022-12-18T10:56:36;-0.50;99.90
29917;DHT22;16786;49.466;11.068;2022-12-18T10:59:07;-0.50;99.90
29917;DHT22;16786;49.466;11.068;2022-12-18T11:01:58;-0.40;99.90
29917;DHT22;16786;49.466;11.068;2022-12-18T11:04:28;-0.30;99.90
29917;DHT22;16786;49.466;11.068;2022-12-18T11:07:02;-0.30;99.90
29917;DHT22;16786;49.466;11.068;2022-12-18T11:09:34;-0.30;99.90
29917;DHT22;16786;49.466;11.068;2022-12-18T11:12:15;-0.10;99.90
29917;DHT22;16786;49.466;11.068;2022-12-18T11:14:49;0.30;99.90
29917;DHT22;16786;49.466;11.068;2022-12-18T11:17:25;0.50;99.90
29917;DHT22;16786;49.466;11.068;2022-12-18T11:19:59;0.60;99.90
29917;DHT22;16786;49.466;11.068;2022-12-18T11:22:35;1.00;99.90
29917;DHT22;16786;49.466;11.068;2022-12-18T11:25:12;1.40;99.90
29917;DHT22;16786;49.466;11.068;2022-12-18T11:28:04;1.90;99.90
29917;DHT22;16786;49.466;11.068;2022-12-18T11:30:34;3.20;99.90
29917;DHT22;16786;49.466;11.068;2022-12-18T11:38:21;6.50;99.90
29917;DHT22;16786;49.466;11.068;2022-12-18T11:43:43;7.30;99.90
29917;DHT22;16786;49.466;11.068;2022-12-18T11:46:13;7.60;99.90
29917;DHT22;16786;49.466;11.068;2022-12-18T11:49:20;7.80;99.90
29917;DHT22;16786;49.466;11.068;2022-12-18T11:52:15;7.00;99.90
29917;DHT22;16786;49.466;11.068;2022-12-18T11:54:43;6.30;99.90
29917;DHT22;16786;49.466;11.068;2022-12-18T11:57:28;5.80;99.90
29917;DHT22;16786;49.466;11.068;2022-12-18T12:00:12;5.20;99.90
29917;DHT22;16786;49.466;11.068;2022-12-18T12:19:36;4.30;99.90
29917;DHT22;16786;49.466;11.068;2022-12-18T12:31:27;4.00;99.90
29917;DHT22;16786;49.466;11.068;2022-12-18T12:34:36;4.30;99.90
29917;DHT22;16786;49.466;11.068;2022-12-18T12:37:20;4.40;99.90
29917;DHT22;16786;49.466;11.068;2022-12-18T12:39:51;4.40;99.90
29917;DHT22;16786;49.466;11.068;2022-12-18T12:45:19;4.60;99.90
29917;DHT22;16786;49.466;11.068;2022-12-18T12:47:49;5.00;99.90
29917;DHT22;16786;49.466;11.068;2022-12-18T12:50:19;5.00;99.90
29917;DHT22;16786;49.466;11.068;2022-12-18T12:52:53;5.00;99.90
29917;DHT22;16786;49.466;11.068;2022-12-18T12:55:26;5.10;99.90
29917;DHT22;16786;49.466;11.068;2022-12-18T13:00:54;5.30;99.90
29917;DHT22;16786;49.466;11.068;2022-12-18T13:06:08;5.40;99.90
29917;DHT22;16786;49.466;11.068;2022-12-18T13:09:00;5.30;99.90
29917;DHT22;16786;49.466;11.068;2022-12-18T13:11:42;4.90;99.90
29917;DHT22;16786;49.466;11.068;2022-12-18T13:14:30;5.20;99.90
29917;DHT22;16786;49.466;11.068;2022-12-18T13:20:09;5.30;99.90
29917;DHT22;16786;49.466;11.068;2022-12-18T13:22:38;5.40;99.90
29917;DHT22;16786;49.466;11.068;2022-12-18T13:35:52;4.20;99.90
29917;DHT22;16786;49.466;11.068;2022-12-18T13:38:37;3.90;99.90
29917;DHT22;16786;49.466;11.068;2022-12-18T13:51:44;2.50;99.90
29917;DHT22;16786;49.466;11.068;2022-12-18T13:54:37;2.30;99.90
29917;DHT22;16786;49.466;11.068;2022-12-18T13:59:52;1.90;99.90
29917;DHT22;16786;49.466;11.068;2022-12-18T14:02:28;1.70;99.90
29917;DHT22;16786;49.466;11.068;2022-12-18T14:04:56;1.60;99.90
29917;DHT22;16786;49.466;11.068;2022-12-18T14:07:25;1.50;99.90
29917;DHT22;16786;49.466;11.068;2022-12-18T14:10:01;1.20;99.90
29917;DHT22;16786;49.466;11.068;2022-12-18T14:12:50;1.00;99.90
29917;DHT22;16786;49.466;11.068;2022-12-18T14:20:47;0.60;99.90
29917;DHT22;16786;49.466;11.068;2022-12-18T14:23:35;0.70;99.90
29917;DHT22;16786;49.466;11.068;2022-12-18T14:26:23;0.50;99.90
29917;DHT22;16786;49.466;11.068;2022-12-18T14:28:50;0.20;99.90
29917;DHT22;16786;49.466;11.068;2022-12-18T14:31:25;0.20;99.90
29917;DHT22;16786;49.466;11.068;2022-12-18T14:33:54;0.00;99.90
29917;DHT22;16786;49.466;11.068;2022-12-18T14:36:24;0.00;99.90
29917;DHT22;16786;49.466;11.068;2022-12-18T14:38:57;-0.10;99.90
29917;DHT22;16786;49.466;11.068;2022-12-18T14:41:25;-0.30;99.90
29917;DHT22;16786;49.466;11.068;2022-12-18T14:43:54;-0.50;99.90
29917;DHT22;16786;49.466;11.068;2022-12-18T14:46:37;-0.60;99.90
29917;DHT22;16786;49.466;11.068;2022-12-18T14:51:50;-1.00;99.90
29917;DHT22;16786;49.466;11.068;2022-12-18T14:54:20;-1.20;99.90
29917;DHT22;16786;49.466;11.068;2022-12-18T14:59:41;-1.40;99.90
29917;DHT22;16786;49.466;11.068;2022-12-18T15:02:22;-1.60;99.90
29917;DHT22;16786;49.466;11.068;2022-12-18T15:05:04;-1.60;99.90
29917;DHT22;16786;49.466;11.068;2022-12-18T15:07:50;-1.80;99.90
29917;DHT22;16786;49.466;11.068;2022-12-18T15:10:21;-1.90;99.90
29917;DHT22;16786;49.466;11.068;2022-12-18T15:20:48;-2.40;99.90
29917;DHT22;16786;49.466;11.068;2022-12-18T15:23:20;-2.50;99.90
29917;DHT22;16786;49.466;11.068;2022-12-18T15:26:00;-2.60;99.90
29917;DHT22;16786;49.466;11.068;2022-12-18T15:28:35;-2.70;99.90
29917;DHT22;16786;49.466;11.068;2022-12-18T15:31:29;-2.70;99.90
29917;DHT22;16786;49.466;11.068;2022-12-18T15:36:26;-2.90;99.90
29917;DHT22;16786;49.466;11.068;2022-12-18T15:38:55;-3.00;99.90
29917;DHT22;16786;49.466;11.068;2022-12-18T15:41:33;-3.00;99.90
29917;DHT22;16786;49.466;11.068;2022-12-18T15:44:03;-3.00;99.90
29917;DHT22;16786;49.466;11.068;2022-12-18T15:46:30;-3.10;99.90
29917;DHT22;16786;49.466;11.068;2022-12-18T15:48:58;-3.10;99.90
29917;DHT22;16786;49.466;11.068;2022-12-18T15:51:34;-3.10;99.90
29917;DHT22;16786;49.466;11.068;2022-12-18T15:54:04;-3.00;99.90
29917;DHT22;16786;49.466;11.068;2022-12-18T15:56:33;-3.10;99.90
29917;DHT22;16786;49.466;11.068;2022-12-18T15:59:20;-3.10;99.90
29917;DHT22;16786;49.466;11.068;2022-12-18T16:01:49;-3.10;99.90
29917;DHT22;16786;49.466;11.068;2022-12-18T16:04:19;-3.20;99.90
29917;DHT22;16786;49.466;11.068;2022-12-18T16:06:50;-3.20;99.90
29917;DHT22;16786;49.466;11.068;2022-12-18T16:09:38;-3.20;99.90
29917;DHT22;16786;49.466;11.068;2022-12-18T16:12:10;-3.20;99.90
29917;DHT22;16786;49.466;11.068;2022-12-18T16:14:41;-3.20;99.90
29917;DHT22;16786;49.466;11.068;2022-12-18T16:17:10;-3.20;99.90
29917;DHT22;16786;49.466;11.068;2022-12-18T16:19:38;-3.20;99.90
29917;DHT22;16786;49.466;11.068;2022-12-18T16:22:08;-3.30;99.90
29917;DHT22;16786;49.466;11.068;2022-12-18T16:24:41;-3.20;99.90
29917;DHT22;16786;49.466;11.068;2022-12-18T16:27:10;-3.30;99.90
29917;DHT22;16786;49.466;11.068;2022-12-18T16:29:37;-3.30;99.90
29917;DHT22;16786;49.466;11.068;2022-12-18T16:32:05;-3.30;99.90
29917;DHT22;16786;49.466;11.068;2022-12-18T16:34:33;-3.40;99.90
29917;DHT22;16786;49.466;11.068;2022-12-18T16:37:04;-3.40;99.90
29917;DHT22;16786;49.466;11.068;2022-12-18T16:39:33;-3.40;99.90
29917;DHT22;16786;49.466;11.068;2022-12-18T16:42:13;-3.40;99.90
29917;DHT22;16786;49.466;11.068;2022-12-18T16:44:42;-3.40;99.90
29917;DHT22;16786;49.466;11.068;2022-12-18T16:47:09;-3.40;99.90
29917;DHT22;16786;49.466;11.068;2022-12-18T16:49:42;-3.40;99.90
29917;DHT22;16786;49.466;11.068;2022-12-18T16:52:09;-3.40;99.90
29917;DHT22;16786;49.466;11.068;2022-12-18T16:54:36;-3.40;99.90
29917;DHT22;16786;49.466;11.068;2022-12-18T16:57:04;-3.40;99.90
29917;DHT22;16786;49.466;11.068;2022-12-18T16:59:32;-3.50;99.90
29917;DHT22;16786;49.466;11.068;2022-12-18T17:02:00;-3.60;99.90
29917;DHT22;16786;49.466;11.068;2022-12-18T17:04:28;-3.60;99.90
29917;DHT22;16786;49.466;11.068;2022-12-18T17:06:55;-3.70;99.90
29917;DHT22;16786;49.466;11.068;2022-12-18T17:09:23;-3.70;99.90
29917;DHT22;16786;49.466;11.068;2022-12-18T17:11:56;-3.70;99.90
29917;DHT22;16786;49.466;11.068;2022-12-18T17:14:28;-3.70;99.90
29917;DHT22;16786;49.466;11.068;2022-12-18T17:16:56;-3.70;99.90
29917;DHT22;16786;49.466;11.068;2022-12-18T17:19:44;-3.80;99.90
29917;DHT22;16786;49.466;11.068;2022-12-18T17:22:11;-3.70;99.90
29917;DHT22;16786;49.466;11.068;2022-12-18T17:24:38;-3.80;99.90
29917;DHT22;16786;49.466;11.068;2022-12-18T17:27:06;-3.70;99.90
29917;DHT22;16786;49.466;11.068;2022-12-18T17:29:45;-3.70;99.90
29917;DHT22;16786;49.466;11.068;2022-12-18T17:32:15;-3.70;99.90
29917;DHT22;16786;49.466;11.068;2022-12-18T17:34:43;-3.80;99.90
29917;DHT22;16786;49.466;11.068;2022-12-18T17:37:10;-3.80;99.90
29917;DHT22;16786;49.466;11.068;2022-12-18T17:39:38;-3.80;99.90
29917;DHT22;16786;49.466;11.068;2022-12-18T17:42:10;-3.90;99.90
29917;DHT22;16786;49.466;11.068;2022-12-18T17:44:42;-3.80;99.90
29917;DHT22;16786;49.466;11.068;2022-12-18T17:47:11;-3.80;99.90
29917;DHT22;16786;49.466;11.068;2022-12-18T17:49:39;-3.90;99.90
29917;DHT22;16786;49.466;11.068;2022-12-18T17:52:07;-3.80;99.90
29917;DHT22;16786;49.466;11.068;2022-12-18T17:54:34;-3.80;99.90
29917;DHT22;16786;49.466;11.068;2022-12-18T17:57:05;-3.70;99.90
29917;DHT22;16786;49.466;11.068;2022-12-18T17:59:33;-3.70;99.90
29917;DHT22;16786;49.466;11.068;2022-12-18T18:02:00;-3.80;99.90